Time;durP1;ratioP1;P1;durP2;ratioP2;P2;SDS_P1;SDS_P2;PMS_P1;PMS_P2;Temp;Humidity;BMP_temperature;BMP_pressure;BME280_temperature;BME280_humidity;BME280_pressure;Samples;Min_cycle;Max_cycle;Signal;HPM_P1;HPM_P2
2023/09/09 00:01:40;;;;;;;;;;;22.30;56.40;;;18.41;100.00;95611.22;5032319;28;19908;-47
2023/09/09 00:04:06;;;;;;;;;;;22.20;56.40;;;18.39;100.00;95616.13;5031659;28;19917;-47
2023/09/09 00:06:32;;;;;;;;;;;22.20;56.50;;;18.35;100.00;95609.78;5030774;28;20007;-49
2023/09/09 00:08:57;;;;;;;;;;;22.20;56.60;;;18.32;100.00;95601.53;5031769;28;19915;-48
2023/09/09 00:11:23;;;;;;;;;;;22.20;56.60;;;18.30;100.00;95612.66;5031550;28;19923;-48
2023/09/09 00:13:50;;;;;;;;;;;22.10;56.60;;;18.26;100.00;95604.38;5018677;28;19919;-52
2023/09/09 00:16:15;;;;;;;;;;;22.10;56.70;;;18.23;100.00;95612.28;5032140;28;19909;-47
2023/09/09 00:18:41;;;;;;;;;;;22.10;56.80;;;18.24;100.00;95613.91;5030767;28;19915;-49
2023/09/09 00:21:07;;;;;;;;;;;22.00;56.90;;;18.23;100.00;95614.97;5032058;28;19961;-48
2023/09/09 00:23:33;;;;;;;;;;;22.00;56.90;;;18.18;100.00;95613.25;5030413;28;19917;-48
2023/09/09 00:25:58;;;;;;;;;;;22.00;57.00;;;18.17;100.00;95613.53;5031875;28;20394;-48
2023/09/09 00:28:24;;;;;;;;;;;22.00;57.10;;;18.14;100.00;95616.84;5030939;28;19909;-49
2023/09/09 00:30:50;;;;;;;;;;;22.00;57.20;;;18.09;100.00;95617.00;5023146;28;19909;-51
2023/09/09 00:33:16;;;;;;;;;;;22.00;57.20;;;18.06;100.00;95614.94;5031785;28;19909;-50
2023/09/09 00:35:42;;;;;;;;;;;21.90;57.20;;;18.04;100.00;95624.09;5013361;28;20264;-46
2023/09/09 00:38:13;;;;;;;;;;;21.90;57.30;;;18.05;100.00;95622.22;5031409;28;19917;-46
2023/09/09 00:40:46;;;;;;;;;;;21.90;57.40;;;18.03;100.00;95619.84;5030928;28;19948;-47
2023/09/09 00:43:12;;;;;;;;;;;21.90;57.40;;;17.99;100.00;95618.88;5031563;28;19919;-46
2023/09/09 00:45:39;;;;;;;;;;;21.90;57.60;;;17.99;100.00;95615.38;5031670;28;20371;-46
2023/09/09 00:48:06;;;;;;;;;;;21.80;58.20;;;17.96;100.00;95619.50;5030665;28;19915;-46
2023/09/09 00:50:32;;;;;;;;;;;21.80;57.60;;;17.97;100.00;95618.38;5014069;28;19909;-48
2023/09/09 00:52:58;;;;;;;;;;;21.80;57.70;;;17.93;100.00;95614.72;5030491;28;19913;-46
2023/09/09 00:55:27;;;;;;;;;;;21.80;57.80;;;17.88;100.00;95616.75;5031956;28;19954;-46
2023/09/09 00:57:52;;;;;;;;;;;21.80;57.80;;;17.91;100.00;95616.91;5031518;28;19916;-49
2023/09/09 01:00:18;;;;;;;;;;;21.70;57.80;;;17.91;100.00;95616.91;5030564;28;19909;-51
2023/09/09 01:02:44;;;;;;;;;;;21.80;58.00;;;17.88;100.00;95617.53;5031381;28;19913;-49
2023/09/09 01:05:11;;;;;;;;;;;21.70;58.60;;;17.78;100.00;95618.59;5012769;28;20498;-48
2023/09/09 01:07:48;;;;;;;;;;;21.70;58.00;;;17.79;100.00;95622.88;5031287;28;19923;-46
2023/09/09 01:10:18;;;;;;;;;;;21.70;58.10;;;17.75;100.00;95616.50;5031116;28;19919;-47
2023/09/09 01:12:44;;;;;;;;;;;21.70;58.10;;;17.64;100.00;95617.06;5021802;28;19909;-49
2023/09/09 01:15:12;;;;;;;;;;;21.60;58.10;;;17.62;100.00;95614.69;5027528;28;20379;-48
2023/09/09 01:17:39;;;;;;;;;;;21.60;58.20;;;17.59;100.00;95618.00;5030549;28;19908;-49
2023/09/09 01:20:14;;;;;;;;;;;21.50;58.20;;;17.58;100.00;95616.41;5031105;28;19966;-50
2023/09/09 01:22:50;;;;;;;;;;;21.50;58.30;;;17.53;100.00;95621.91;5030598;28;19917;-50
2023/09/09 01:25:16;;;;;;;;;;;21.50;58.40;;;17.49;100.00;95621.75;5031183;28;19948;-51
2023/09/09 01:27:42;;;;;;;;;;;21.40;58.40;;;17.42;100.00;95624.06;5031170;28;19913;-47
2023/09/09 01:30:11;;;;;;;;;;;21.40;58.50;;;17.42;100.00;95623.25;5030045;28;20337;-49
2023/09/09 01:32:36;;;;;;;;;;;21.40;58.50;;;17.36;100.00;95630.69;5031118;28;19912;-48
2023/09/09 01:35:04;;;;;;;;;;;21.30;58.60;;;17.35;100.00;95626.38;5030392;28;19995;-49
2023/09/09 01:37:31;;;;;;;;;;;21.30;58.70;;;17.33;100.00;95628.63;5031242;28;19932;-50
2023/09/09 01:39:57;;;;;;;;;;;21.30;58.70;;;17.28;100.00;95626.81;5031237;28;19944;-48
2023/09/09 01:42:22;;;;;;;;;;;21.20;58.80;;;17.24;100.00;95630.44;5030272;28;19952;-48
2023/09/09 01:44:48;;;;;;;;;;;21.20;58.80;;;17.21;100.00;95631.84;5030980;28;20378;-51
2023/09/09 01:47:14;;;;;;;;;;;21.20;58.90;;;17.19;100.00;95625.97;5030212;28;20367;-51
2023/09/09 01:49:42;;;;;;;;;;;21.20;58.90;;;17.22;100.00;95629.94;5018488;28;19920;-46
2023/09/09 01:52:08;;;;;;;;;;;21.10;59.00;;;17.18;100.00;95637.84;5013743;28;19913;-47
2023/09/09 01:54:35;;;;;;;;;;;21.10;59.00;;;17.16;100.00;95636.53;5030126;28;19916;-46
2023/09/09 01:57:00;;;;;;;;;;;21.10;59.10;;;17.13;100.00;95632.56;5034097;28;19997;-48
2023/09/09 01:59:26;;;;;;;;;;;21.10;59.20;;;17.10;100.00;95628.56;5033821;28;19963;-46
2023/09/09 02:01:53;;;;;;;;;;;21.00;59.20;;;17.09;100.00;95629.69;5034540;28;19913;-47
2023/09/09 02:04:18;;;;;;;;;;;21.00;59.30;;;17.07;100.00;95629.19;5034236;28;19912;-47
2023/09/09 02:06:46;;;;;;;;;;;21.00;59.30;;;17.05;100.00;95627.91;5033934;28;19927;-53
2023/09/09 02:09:12;;;;;;;;;;;21.00;59.30;;;17.02;100.00;95623.16;5034372;28;19941;-56
2023/09/09 02:11:38;;;;;;;;;;;20.90;59.30;;;16.98;100.00;95624.84;5033594;28;19909;-56
2023/09/09 02:14:04;;;;;;;;;;;20.90;59.30;;;16.98;100.00;95622.16;5034459;28;19909;-55
2023/09/09 02:16:30;;;;;;;;;;;20.90;59.50;;;16.98;100.00;95624.84;5033446;28;19916;-51
2023/09/09 02:18:55;;;;;;;;;;;20.90;59.50;;;16.95;100.00;95623.53;5034241;28;19934;-56
2023/09/09 02:21:21;;;;;;;;;;;20.90;59.60;;;16.95;100.00;95628.91;5034114;28;19912;-55
2023/09/09 02:23:47;;;;;;;;;;;20.90;59.60;;;16.94;100.00;95624.66;5032967;28;19964;-56
2023/09/09 02:26:12;;;;;;;;;;;20.90;59.70;;;16.91;100.00;95632.53;5034079;28;19958;-56
2023/09/09 02:28:38;;;;;;;;;;;20.80;59.70;;;16.91;100.00;95625.25;5032861;28;19944;-53
2023/09/09 02:31:04;;;;;;;;;;;20.80;59.80;;;16.87;100.00;95618.91;5033787;28;20007;-54
2023/09/09 02:33:30;;;;;;;;;;;20.80;59.80;;;16.84;100.00;95624.88;5034072;28;19912;-55
2023/09/09 02:35:59;;;;;;;;;;;20.80;59.80;;;16.85;100.00;95626.47;5032930;28;19983;-52
2023/09/09 02:38:26;;;;;;;;;;;20.80;59.90;;;16.87;100.00;95630.44;5033695;28;20003;-54
2023/09/09 02:40:52;;;;;;;;;;;20.80;60.00;;;16.86;100.00;95625.38;5033045;28;19909;-56
2023/09/09 02:43:18;;;;;;;;;;;20.80;60.10;;;16.85;100.00;95629.16;5033643;28;19919;-55
2023/09/09 02:45:44;;;;;;;;;;;20.80;60.10;;;16.83;100.00;95632.16;5033954;28;19954;-53
2023/09/09 02:48:09;;;;;;;;;;;20.80;60.10;;;16.82;100.00;95627.06;5032817;28;19909;-54
2023/09/09 02:50:36;;;;;;;;;;;20.70;60.10;;;16.79;100.00;95631.16;5033723;28;19908;-55
2023/09/09 02:53:01;;;;;;;;;;;20.70;60.20;;;16.80;100.00;95637.34;5032520;28;19920;-56
2023/09/09 02:55:27;;;;;;;;;;;20.70;60.20;;;16.77;100.00;95629.91;5032975;28;20299;-52
2023/09/09 02:57:53;;;;;;;;;;;20.70;60.30;;;16.74;100.00;95628.56;5033546;28;19920;-56
2023/09/09 03:00:19;;;;;;;;;;;20.70;60.30;;;16.74;100.00;95633.16;5032421;28;19908;-55
2023/09/09 03:02:45;;;;;;;;;;;20.60;60.50;;;16.71;100.00;95628.38;5033446;28;19912;-56
2023/09/09 03:05:11;;;;;;;;;;;20.60;60.30;;;16.70;100.00;95627.56;5032146;28;19959;-56
2023/09/09 03:07:38;;;;;;;;;;;20.60;60.40;;;16.72;100.00;95628.06;5032989;28;19920;-54
2023/09/09 03:10:04;;;;;;;;;;;20.60;60.60;;;16.71;100.00;95631.84;5032736;28;19912;-52
2023/09/09 03:12:30;;;;;;;;;;;20.60;60.70;;;16.71;100.00;95625.69;5031499;28;20338;-55
2023/09/09 03:14:56;;;;;;;;;;;20.60;60.70;;;16.71;100.00;95633.75;5032304;28;19956;-55
2023/09/09 03:17:22;;;;;;;;;;;20.60;60.80;;;16.71;100.00;95631.06;5031860;28;19915;-53
2023/09/09 03:19:48;;;;;;;;;;;20.60;60.90;;;16.73;100.00;95631.53;5031697;28;19909;-50
2023/09/09 03:22:13;;;;;;;;;;;20.60;60.90;;;16.71;100.00;95629.16;5033207;28;19974;-56
2023/09/09 03:24:39;;;;;;;;;;;20.60;60.90;;;16.69;100.00;95631.34;5031970;28;19932;-55
2023/09/09 03:27:05;;;;;;;;;;;20.60;61.00;;;16.71;100.00;95636.44;5033080;28;19920;-55
2023/09/09 03:29:31;;;;;;;;;;;20.60;61.00;;;16.70;100.00;95630.25;5032085;28;19913;-54
2023/09/09 03:31:56;;;;;;;;;;;20.60;61.00;;;16.68;100.00;95635.16;5033034;28;20151;-52
2023/09/09 03:34:22;;;;;;;;;;;20.60;61.00;;;16.64;100.00;95637.66;5032562;28;19909;-55
2023/09/09 03:36:48;;;;;;;;;;;20.60;61.10;;;16.59;100.00;95631.56;5031874;28;19958;-56
2023/09/09 03:39:14;;;;;;;;;;;20.60;61.10;;;16.56;100.00;95641.03;5032749;28;20383;-54
2023/09/09 03:41:40;;;;;;;;;;;20.60;61.20;;;16.61;100.00;95648.22;5021689;28;19916;-55
2023/09/09 03:44:06;;;;;;;;;;;20.50;61.20;;;16.60;100.00;95647.41;5032945;28;20343;-54
2023/09/09 03:46:32;;;;;;;;;;;20.50;61.20;;;16.58;100.00;95643.44;5032075;28;19912;-50
2023/09/09 03:48:57;;;;;;;;;;;20.50;61.30;;;16.56;100.00;95651.00;5014730;28;20005;-55
2023/09/09 03:51:24;;;;;;;;;;;20.50;61.40;;;16.52;100.00;95644.63;5014783;28;20390;-51
2023/09/09 03:53:50;;;;;;;;;;;20.50;61.30;;;16.41;100.00;95641.34;5031695;28;20007;-50
2023/09/09 03:56:17;;;;;;;;;;;20.50;61.40;;;16.38;100.00;95640.06;5032584;28;19916;-56
2023/09/09 03:58:43;;;;;;;;;;;20.50;61.40;;;16.40;100.00;95645.94;5031762;28;19948;-56
2023/09/09 04:01:12;;;;;;;;;;;20.40;61.50;;;16.40;100.00;95645.94;5032651;28;20001;-55
2023/09/09 04:03:39;;;;;;;;;;;20.40;61.50;;;16.37;100.00;95646.53;5032126;28;19912;-48
2023/09/09 04:06:11;;;;;;;;;;;20.40;61.50;;;16.34;100.00;95643.66;5030519;28;27750;-48
2023/09/09 04:08:39;;;;;;;;;;;20.40;61.60;;;16.32;100.00;95643.13;5031991;28;19912;-52
2023/09/09 04:11:06;;;;;;;;;;;20.40;61.60;;;16.28;100.00;95652.91;5031315;28;19932;-54
2023/09/09 04:13:32;;;;;;;;;;;20.30;61.60;;;16.24;100.00;95650.03;5017256;28;20352;-55
2023/09/09 04:15:59;;;;;;;;;;;20.30;61.60;;;16.18;100.00;95646.63;5032165;28;20325;-55
2023/09/09 04:18:27;;;;;;;;;;;20.30;61.60;;;16.15;100.00;95646.44;5012971;28;19909;-54
2023/09/09 04:20:53;;;;;;;;;;;20.30;61.70;;;16.14;100.00;95642.16;5032069;28;20383;-56
2023/09/09 04:23:19;;;;;;;;;;;20.20;61.70;;;16.13;100.00;95645.94;5030911;28;20034;-51
2023/09/09 04:25:45;;;;;;;;;;;20.20;61.80;;;16.11;100.00;95646.25;5032117;28;19944;-52
2023/09/09 04:28:12;;;;;;;;;;;20.20;61.90;;;16.10;100.00;95647.31;5031976;28;20322;-54
2023/09/09 04:30:40;;;;;;;;;;;20.10;61.90;;;16.10;100.00;95649.22;5031314;28;19962;-55
2023/09/09 04:33:11;;;;;;;;;;;20.10;62.00;;;16.08;100.00;95656.78;5032104;28;19915;-56
2023/09/09 04:35:43;;;;;;;;;;;20.10;62.00;;;16.01;100.00;95651.00;5031204;28;19916;-54
2023/09/09 04:38:10;;;;;;;;;;;20.10;62.10;;;16.02;100.00;95652.59;5031815;28;19908;-51
2023/09/09 04:40:40;;;;;;;;;;;20.00;62.10;;;15.99;100.00;95653.19;5031135;28;19923;-50
2023/09/09 04:43:07;;;;;;;;;;;20.00;62.10;;;15.99;100.00;95654.00;5013977;28;19952;-55
2023/09/09 04:45:33;;;;;;;;;;;20.00;62.20;;;15.98;100.00;95656.97;5031906;28;19909;-55
2023/09/09 04:47:58;;;;;;;;;;;20.00;62.30;;;15.94;100.00;95665.59;5030932;28;19908;-53
2023/09/09 04:50:24;;;;;;;;;;;20.00;62.30;;;15.90;100.00;95661.94;5031657;28;19916;-49
2023/09/09 04:52:50;;;;;;;;;;;20.00;62.30;;;15.88;100.00;95660.63;5030769;28;20379;-49
2023/09/09 04:55:16;;;;;;;;;;;20.00;62.30;;;15.85;100.00;95661.22;5031574;28;19909;-51
2023/09/09 04:57:42;;;;;;;;;;;19.90;62.30;;;15.83;100.00;95666.09;5031277;28;20004;-49
2023/09/09 05:00:09;;;;;;;;;;;19.90;62.30;;;15.83;100.00;95663.41;5030789;28;19908;-49
2023/09/09 05:02:39;;;;;;;;;;;19.90;62.30;;;15.81;100.00;95666.38;5031522;28;19919;-53
2023/09/09 05:05:06;;;;;;;;;;;19.90;62.30;;;15.80;100.00;95669.38;5030530;28;19940;-51
2023/09/09 05:07:34;;;;;;;;;;;19.90;62.40;;;15.79;100.00;95670.44;5031223;28;19978;-52
2023/09/09 05:10:04;;;;;;;;;;;19.90;62.40;;;15.80;100.00;95661.31;5031065;28;20011;-50
2023/09/09 05:12:31;;;;;;;;;;;19.90;62.50;;;15.81;100.00;95673.66;5030188;28;20383;-50
2023/09/09 05:14:57;;;;;;;;;;;19.90;62.60;;;15.83;100.00;95664.22;5031337;28;19915;-51
2023/09/09 05:17:22;;;;;;;;;;;19.90;62.60;;;15.88;100.00;95669.47;5025939;28;19913;-52
2023/09/09 05:19:48;;;;;;;;;;;20.00;63.50;;;15.94;100.00;95678.25;5024345;28;19909;-50
2023/09/09 05:22:14;;;;;;;;;;;20.00;62.80;;;15.99;100.00;95675.47;5030438;28;19908;-51
2023/09/09 05:24:40;;;;;;;;;;;20.00;62.80;;;16.03;100.00;95678.38;5021893;28;19909;-52
2023/09/09 05:27:06;;;;;;;;;;;20.00;62.70;;;16.07;100.00;95684.72;5031095;28;19931;-52
2023/09/09 05:29:31;;;;;;;;;;;20.10;62.80;;;16.10;100.00;95686.81;5030222;28;19917;-54
2023/09/09 05:31:57;;;;;;;;;;;20.10;62.80;;;16.11;100.00;95685.75;5034440;28;19915;-56
2023/09/09 05:34:23;;;;;;;;;;;20.20;62.90;;;16.13;100.00;95687.03;5031417;28;19913;-52
2023/09/09 05:36:49;;;;;;;;;;;20.20;62.80;;;16.17;100.00;95684.56;5025992;28;19931;-54
2023/09/09 05:39:14;;;;;;;;;;;20.30;62.90;;;16.21;100.00;95684.75;5031787;28;20363;-54
2023/09/09 05:41:40;;;;;;;;;;;20.40;63.60;;;16.27;100.00;95691.63;5023475;28;19908;-52
2023/09/09 05:44:06;;;;;;;;;;;20.40;62.80;;;16.34;100.00;95689.34;5034831;28;19913;-50
2023/09/09 05:46:32;;;;;;;;;;;20.50;62.90;;;16.40;100.00;95686.25;5033625;28;19909;-50
2023/09/09 05:48:57;;;;;;;;;;;20.60;62.90;;;16.51;100.00;95686.03;5034621;28;20402;-52
2023/09/09 05:51:23;;;;;;;;;;;20.70;62.90;;;16.63;100.00;95689.03;5017225;28;19912;-53
2023/09/09 05:53:51;;;;;;;;;;;20.90;62.80;;;16.77;100.00;95676.41;5033807;28;19909;-54
2023/09/09 05:56:17;;;;;;;;;;;21.00;62.90;;;16.95;100.00;95682.72;5034640;28;19915;-55
2023/09/09 05:58:43;;;;;;;;;;;21.20;62.90;;;17.17;100.00;95683.88;5033751;28;19956;-55
2023/09/09 06:01:09;;;;;;;;;;;21.40;62.80;;;17.39;100.00;95688.50;5034821;28;20386;-56
2023/09/09 06:03:35;;;;;;;;;;;21.60;62.70;;;17.62;100.00;95690.09;5034180;28;19913;-52
2023/09/09 06:06:02;;;;;;;;;;;21.90;62.70;;;17.90;100.00;95685.41;5033836;28;19908;-53
2023/09/09 06:08:29;;;;;;;;;;;22.20;62.70;;;18.17;100.00;95692.50;5034080;28;19917;-54
2023/09/09 06:10:54;;;;;;;;;;;22.50;62.60;;;18.40;100.00;95695.16;5032939;28;19959;-52
2023/09/09 06:13:20;;;;;;;;;;;22.80;62.40;;;18.55;100.00;95696.63;5034387;28;20042;-55
2023/09/09 06:15:46;;;;;;;;;;;23.20;62.20;;;18.76;100.00;95692.28;5034449;28;19917;-55
2023/09/09 06:18:12;;;;;;;;;;;23.50;62.00;;;19.02;100.00;95705.03;5033724;28;19909;-51
2023/09/09 06:20:37;;;;;;;;;;;23.80;61.60;;;19.24;100.00;95704.09;5034152;28;20375;-48
2023/09/09 06:23:03;;;;;;;;;;;24.20;61.20;;;19.52;100.00;95705.38;5033076;28;20041;-54
2023/09/09 06:25:30;;;;;;;;;;;24.50;60.80;;;19.79;100.00;95708.91;5033948;28;20007;-53
2023/09/09 06:27:56;;;;;;;;;;;24.90;60.40;;;20.04;100.00;95707.25;5033534;28;19908;-49
2023/09/09 06:30:22;;;;;;;;;;;25.20;60.00;;;20.26;100.00;95709.75;5032975;28;19908;-49
2023/09/09 06:32:48;;;;;;;;;;;25.70;59.80;;;20.55;100.00;95709.00;5013967;28;19909;-53
2023/09/09 06:35:14;;;;;;;;;;;26.00;59.40;;;20.80;100.00;95710.00;5029504;28;20264;-51
2023/09/09 06:37:39;;;;;;;;;;;26.40;59.10;;;21.07;100.00;95707.16;5033875;28;20330;-55
2023/09/09 06:40:06;;;;;;;;;;;26.80;58.90;;;21.35;100.00;95702.03;5024960;28;19915;-56
2023/09/09 06:42:32;;;;;;;;;;;27.10;58.50;;;21.61;98.31;95705.34;5032653;28;20291;-51
2023/09/09 06:45:00;;;;;;;;;;;27.50;58.30;;;21.85;96.12;95704.66;5033760;28;19909;-49
2023/09/09 06:47:25;;;;;;;;;;;27.80;58.00;;;22.18;96.42;95709.31;5032819;28;20287;-53
2023/09/09 06:49:51;;;;;;;;;;;28.10;57.60;;;22.43;93.67;95712.06;5033595;28;19915;-56
2023/09/09 06:52:17;;;;;;;;;;;28.40;57.30;;;22.68;90.23;95715.59;5033635;28;19908;-52
2023/09/09 06:54:43;;;;;;;;;;;28.70;57.00;;;22.95;89.86;95723.09;5033919;28;19919;-51
2023/09/09 06:57:10;;;;;;;;;;;29.00;56.70;;;23.35;88.14;95719.66;5034685;28;19996;-54
2023/09/09 06:59:35;;;;;;;;;;;29.40;56.50;;;23.68;84.20;95716.72;5032668;28;20381;-56
2023/09/09 07:02:02;;;;;;;;;;;29.80;56.20;;;24.02;82.31;95725.47;5033592;28;20022;-56
2023/09/09 07:04:28;;;;;;;;;;;30.10;55.80;;;24.37;80.24;95731.03;5033099;28;19912;-54
2023/09/09 07:06:53;;;;;;;;;;;30.50;55.60;;;24.76;76.47;95733.19;5032247;28;20413;-54
2023/09/09 07:09:21;;;;;;;;;;;30.90;55.10;;;25.05;75.15;95735.47;5033235;28;20482;-51
2023/09/09 07:11:46;;;;;;;;;;;31.40;54.80;;;25.33;73.29;95735.38;5031517;28;20003;-50
2023/09/09 07:14:12;;;;;;;;;;;31.70;54.20;;;25.66;72.70;95736.03;5021672;28;19999;-53
2023/09/09 07:16:38;;;;;;;;;;;32.10;53.80;;;25.84;71.24;95729.84;5032554;28;20411;-55
2023/09/09 07:19:04;;;;;;;;;;;32.60;53.30;;;26.22;69.12;95733.69;5033217;28;19911;-56
2023/09/09 07:21:29;;;;;;;;;;;32.90;52.80;;;26.49;68.05;95739.28;5033018;28;19909;-56
2023/09/09 07:23:55;;;;;;;;;;;33.20;52.40;;;26.73;65.97;95735.38;5031810;28;19935;-56
2023/09/09 07:26:21;;;;;;;;;;;33.50;52.10;;;26.98;65.19;95739.31;5033013;28;19913;-54
2023/09/09 07:28:46;;;;;;;;;;;33.70;51.70;;;27.25;65.06;95735.84;5032719;28;20018;-54
2023/09/09 07:31:13;;;;;;;;;;;33.90;51.50;;;27.33;64.86;95738.31;5033054;28;20384;-53
2023/09/09 07:33:39;;;;;;;;;;;33.90;51.10;;;27.27;63.07;95739.78;5031972;28;20398;-56
2023/09/09 07:36:05;;;;;;;;;;;33.80;50.90;;;26.97;63.96;95736.94;5031665;28;19915;-54
2023/09/09 07:38:30;;;;;;;;;;;33.70;50.70;;;26.81;65.16;95739.03;5032420;28;19908;-56
2023/09/09 07:40:58;;;;;;;;;;;33.60;50.40;;;26.64;65.71;95737.59;5031746;28;19908;-54
2023/09/09 07:43:24;;;;;;;;;;;33.50;50.30;;;26.66;65.91;95738.00;5032515;28;19917;-55
2023/09/09 07:45:51;;;;;;;;;;;33.40;50.00;;;26.75;65.46;95735.81;5032574;28;20325;-56
2023/09/09 07:48:18;;;;;;;;;;;33.30;50.00;;;26.87;65.08;95740.31;5031532;28;19958;-56
2023/09/09 07:50:52;;;;;;;;;;;33.20;50.10;;;26.81;64.65;95741.75;5032644;28;19908;-56
2023/09/09 07:53:20;;;;;;;;;;;33.00;50.00;;;26.75;65.30;95741.28;5030646;28;20008;-55
2023/09/09 07:55:51;;;;;;;;;;;32.90;50.00;;;26.71;65.56;95740.44;5032561;28;19934;-56
2023/09/09 07:58:18;;;;;;;;;;;32.70;50.00;;;26.62;65.38;95743.41;5032447;28;20325;-55
2023/09/09 08:00:46;;;;;;;;;;;32.50;50.00;;;26.49;66.18;95736.53;5031245;28;19908;-50
2023/09/09 08:03:13;;;;;;;;;;;32.30;50.00;;;26.44;65.58;95734.06;5032263;28;19987;-49
2023/09/09 08:05:40;;;;;;;;;;;32.10;50.00;;;26.44;65.51;95737.59;5031185;28;19920;-50
2023/09/09 08:08:07;;;;;;;;;;;32.00;50.00;;;26.30;66.30;95740.88;5040326;23;19960;-54
2023/09/09 08:10:34;;;;;;;;;;;31.90;50.00;;;26.49;66.26;95742.00;5030238;28;20007;-54
2023/09/09 08:13:00;;;;;;;;;;;32.00;49.80;;;26.73;65.82;95744.38;5029330;28;19909;-53
2023/09/09 08:15:26;;;;;;;;;;;32.20;49.70;;;27.17;63.67;95748.59;5032128;28;19913;-54
2023/09/09 08:17:53;;;;;;;;;;;32.40;49.60;;;27.55;62.50;95749.56;5023467;28;19909;-53
2023/09/09 08:20:19;;;;;;;;;;;32.80;49.60;;;27.88;60.93;95754.31;5025635;28;19916;-51
2023/09/09 08:22:44;;;;;;;;;;;33.10;49.40;;;28.13;60.04;95749.13;5019977;28;19960;-55
2023/09/09 08:25:12;;;;;;;;;;;33.50;49.10;;;28.35;58.21;95748.19;5020805;28;19909;-56
2023/09/09 08:27:39;;;;;;;;;;;33.90;48.70;;;28.64;57.91;95758.66;5027838;28;19912;-56
2023/09/09 08:30:06;;;;;;;;;;;34.20;48.30;;;28.75;57.38;95749.38;5031165;28;19909;-56
2023/09/09 08:32:32;;;;;;;;;;;34.50;48.00;;;28.79;57.36;95752.94;5031814;28;19954;-56
2023/09/09 08:34:59;;;;;;;;;;;34.70;47.60;;;29.05;56.08;95756.69;5030168;28;19917;-56
2023/09/09 08:37:25;;;;;;;;;;;35.00;47.20;;;29.27;55.49;95752.97;5020642;28;19916;-53
2023/09/09 08:39:55;;;;;;;;;;;35.30;47.00;;;29.58;53.60;95750.78;5027332;28;20297;-54
2023/09/09 08:43:17;;;;;;;;;;;35.60;46.70;;;29.83;52.95;95755.66;5021833;28;19966;-57
2023/09/09 08:45:58;;;;;;;;;;;36.00;46.40;;;30.46;51.84;95745.31;4983157;28;19983;-57
2023/09/09 08:48:31;;;;;;;;;;;36.30;45.90;;;30.79;49.83;95741.47;4989285;28;20363;-57
2023/09/09 08:51:01;;;;;;;;;;;36.60;45.60;;;30.93;49.89;95738.69;5004658;28;20486;-55
2023/09/09 08:53:30;;;;;;;;;;;36.80;45.20;;;31.18;49.17;95744.19;5018982;28;20015;-57
2023/09/09 08:55:58;;;;;;;;;;;37.10;44.90;;;31.43;47.65;95738.69;5018540;28;20010;-52
2023/09/09 08:58:25;;;;;;;;;;;37.30;45.30;;;31.53;47.65;95748.13;5031532;28;19940;-57
2023/09/09 09:00:53;;;;;;;;;;;37.60;44.30;;;31.39;48.08;95751.66;5027431;28;19909;-57
2023/09/09 09:03:20;;;;;;;;;;;37.80;44.00;;;31.73;47.23;95745.69;5021898;28;20371;-54
2023/09/09 09:05:48;;;;;;;;;;;38.00;43.60;;;31.70;47.26;95750.03;5027595;28;19916;-56
2023/09/09 09:08:13;;;;;;;;;;;38.20;43.40;;;31.83;47.02;95755.88;5027516;28;20371;-53
2023/09/09 09:10:40;;;;;;;;;;;38.30;43.00;;;31.86;46.48;95744.06;5031641;28;20058;-53
2023/09/09 09:13:06;;;;;;;;;;;38.50;42.60;;;32.00;46.98;95748.78;5018472;28;19948;-57
2023/09/09 09:15:33;;;;;;;;;;;38.60;42.40;;;32.46;46.38;95751.31;5031518;28;19967;-54
2023/09/09 09:17:59;;;;;;;;;;;38.80;42.30;;;32.80;45.34;95742.44;5018148;28;20355;-52
2023/09/09 09:20:28;;;;;;;;;;;38.90;42.10;;;33.22;44.38;95751.59;5031435;28;19915;-55
2023/09/09 09:23:00;;;;;;;;;;;39.10;41.80;;;33.32;44.04;95747.19;5017865;28;20390;-49
2023/09/09 09:25:28;;;;;;;;;;;39.30;41.50;;;33.23;43.26;95746.88;5031492;28;20358;-55
2023/09/09 09:27:57;;;;;;;;;;;39.50;41.20;;;33.42;43.37;95748.25;5028851;28;19909;-54
2023/09/09 09:30:25;;;;;;;;;;;39.50;40.90;;;33.46;42.94;95747.03;5026970;28;20371;-49
2023/09/09 09:32:53;;;;;;;;;;;39.70;40.80;;;33.53;43.13;95748.94;5026488;28;19913;-53
2023/09/09 09:35:36;;;;;;;;;;;39.90;40.60;;;33.56;42.60;95742.59;5036202;28;19915;-54
2023/09/09 09:38:07;;;;;;;;;;;40.00;40.30;;;33.56;42.05;95739.84;5036637;28;19909;-50
2023/09/09 09:40:35;;;;;;;;;;;40.20;40.10;;;33.47;42.50;95742.28;5023866;28;19909;-56
2023/09/09 09:43:02;;;;;;;;;;;40.30;39.80;;;33.36;42.77;95734.13;5024355;28;19913;-50
2023/09/09 09:45:31;;;;;;;;;;;40.50;39.60;;;33.47;42.68;95732.03;5029141;28;19946;-52
2023/09/09 09:47:58;;;;;;;;;;;40.60;39.40;;;33.86;41.67;95730.84;5030339;28;20064;-53
2023/09/09 09:50:30;;;;;;;;;;;40.60;39.10;;;34.14;40.99;95738.03;5027299;28;20398;-51
2023/09/09 09:52:59;;;;;;;;;;;40.70;39.00;;;34.15;41.06;95733.28;5023531;28;19908;-57
2023/09/09 09:55:26;;;;;;;;;;;40.80;38.70;;;34.03;41.26;95740.13;5027860;28;19909;-57
2023/09/09 09:58:04;;;;;;;;;;;40.90;38.50;;;34.11;41.32;95736.09;5034644;28;19912;-57
2023/09/09 10:00:30;;;;;;;;;;;41.00;38.30;;;34.53;41.27;95731.19;5016468;28;19981;-53
2023/09/09 10:03:00;;;;;;;;;;;41.10;38.20;;;34.62;40.87;95733.44;5037413;28;20370;-54
2023/09/09 10:05:28;;;;;;;;;;;41.20;38.10;;;34.45;41.12;95738.78;5031336;28;19932;-53
2023/09/09 10:08:31;;;;;;;;;;;41.40;38.00;;;34.72;40.09;95738.03;5023859;28;19916;-51
2023/09/09 10:11:07;;;;;;;;;;;41.60;37.80;;;35.02;39.13;95722.56;5023221;28;20333;-56
2023/09/09 10:13:43;;;;;;;;;;;41.70;37.50;;;35.26;39.03;95723.34;5025553;28;19909;-54
2023/09/09 10:16:12;;;;;;;;;;;42.00;37.50;;;35.22;39.12;95717.88;5034708;28;19909;-52
2023/09/09 10:18:39;;;;;;;;;;;42.20;37.20;;;35.36;39.32;95720.41;5017058;28;19947;-56
2023/09/09 10:21:07;;;;;;;;;;;42.40;37.00;;;35.63;39.28;95720.34;5021274;28;20341;-52
2023/09/09 10:23:33;;;;;;;;;;;42.50;36.80;;;35.52;39.25;95721.72;5031555;28;20366;-51
2023/09/09 10:26:01;;;;;;;;;;;42.70;36.50;;;36.00;37.94;95712.06;5019357;28;20357;-54
2023/09/09 10:28:28;;;;;;;;;;;42.90;36.30;;;36.28;38.00;95716.25;5021087;28;19909;-52
2023/09/09 10:30:55;;;;;;;;;;;43.00;36.60;;;36.63;37.26;95714.69;5015750;28;20402;-54
2023/09/09 10:33:23;;;;;;;;;;;43.20;35.90;;;36.89;36.98;95715.69;5032084;28;19962;-51
2023/09/09 10:35:51;;;;;;;;;;;43.20;35.70;;;37.09;35.85;95706.50;5025061;28;19909;-56
2023/09/09 10:38:18;;;;;;;;;;;43.40;35.60;;;37.03;36.02;95709.03;5027978;28;20007;-57
2023/09/09 10:40:48;;;;;;;;;;;43.60;35.40;;;37.40;35.56;95707.66;5017828;28;19909;-55
2023/09/09 10:43:14;;;;;;;;;;;43.90;35.20;;;37.71;35.63;95702.47;5031996;28;19913;-51
2023/09/09 10:45:44;;;;;;;;;;;44.10;34.90;;;37.99;34.89;95708.50;5020539;28;20439;-57
2023/09/09 10:48:11;;;;;;;;;;;44.40;34.70;;;38.17;34.44;95702.38;5013932;28;20011;-54
2023/09/09 10:50:49;;;;;;;;;;;44.60;34.40;;;38.26;33.88;95698.94;5027416;28;19952;-52
2023/09/09 10:53:26;;;;;;;;;;;44.80;34.20;;;38.07;33.70;95689.59;5021678;28;19921;-56
2023/09/09 10:55:54;;;;;;;;;;;45.00;33.90;;;38.11;33.71;95693.84;5015691;28;19915;-53
2023/09/09 10:58:39;;;;;;;;;;;45.20;33.60;;;37.79;34.00;95693.94;5032022;28;19935;-56
2023/09/09 11:01:21;;;;;;;;;;;45.30;33.40;;;37.52;33.58;95683.97;5031742;28;19916;-57
2023/09/09 11:03:51;;;;;;;;;;;45.40;33.00;;;37.37;33.84;95683.53;5019993;28;20010;-58
2023/09/09 11:06:24;;;;;;;;;;;45.40;32.90;;;37.55;33.83;95680.31;5032585;28;19912;-58
2023/09/09 11:08:55;;;;;;;;;;;45.30;32.90;;;37.47;35.02;95681.72;5019899;28;19927;-57
2023/09/09 11:11:30;;;;;;;;;;;45.40;32.90;;;37.70;34.08;95678.72;5028004;28;20011;-58
2023/09/09 11:14:04;;;;;;;;;;;45.50;32.80;;;38.29;33.92;95678.59;5020035;28;19916;-58